チューリッヒ の空港の天気 - METARとTAF

チューリヒ国際空港 ( LSZH / ZRH ) - スイス チューリッヒ
飛行場実況気象(Metar)
観測時間01/21 18:50 CET (01/21 17:50 UTC)
風向・風速東北東 2m/s
視程10km以上
天気現象弱い霧雨
少しの雲 雲底高度 550m
全天の8割程度の雲 雲底高度 730m
気温3℃
湿度81%
気圧1018hPa
METARLSZH 211750Z 07004KT 9999 -DZ FEW018 BKN024 03/M00 Q1018 NOSIG
過去の天気等 Google飛行場航空写真 Wunderground天気予報

過去48時間のMETAR

飛行場予報(TAF)
発表時間: 1/21 18:25 CET (1/21 17:25 UTC)
予報対象時間: 21日19時 CET ~ 23日1時 CET
風向・風速不定 2m/s
視程10km以上
少しの雲 雲底高度 460m
全天の4割程度の雲 雲底高度 610m
全天の8割程度の雲 雲底高度 910m
21日21時 CET ~ 21日24時 CET に徐々に
視程4,000m
天気現象
全天の8割程度の雲 雲底高度 430m
21日21時 CET から 確率 40% で
視程2,500m
天気現象雨雪
全天の8割程度の雲 雲底高度 270m
22日1時 CET ~ 22日16時 CET に一時的に
視程2,500m
天気現象強い雨
全天の8割程度の雲 雲底高度 240m
22日4時 CET ~ 22日7時 CET に徐々に
風向・風速南南西 5m/s
22日7時 CET ~ 22日22時 CET に一時的に
風向・風速西南西 8m/s 瞬間風速 13m/s
22日16時 CET ~ 22日19時 CET に徐々に
天気現象運行に影響にある天気現象が終了
22日16時 CET ~ 22日22時 CET に一時的に
天気現象しゅう雨
TAF LSZH 211725Z 2118/2224 VRB03KT 9999 FEW015 SCT020 BKN030 TX08/2215Z TN02/2200Z
BECMG 2120/2123 4000 RA BKN014
PROB40 2120/2124 2500 RASN BKN009
TEMPO 2200/2215 2500 +RA BKN008
BECMG 2203/2206 20010KT
TEMPO 2206/2221 24015G25KT
BECMG 2215/2218 NSW
TEMPO 2215/2221 SHRA